Flight Track Log - Related Links

Times and Time Zones

All times are in EST time to prevent confusion due to time zone crossing. See the UCA5006 flight status page for this flight to view local times or setup timezone preferences in your user account.

Time Position Orientation Groundspeed Altitude Reporting Facility
EST Latitude Longitude Course Direction KTS MPH feet Rate Location/Type
Fri 05:44:56 PM 40.3869 -76.9978 303° West 249 287 6,000  Level New York Center
Fri 05:45:56 PM 40.4211 -77.0608 305° West 248 285 7,000 1,150 Climbing New York Center
Fri 05:46:00 PM 40.4109 -77.1384 303° West  Level FlightAware Approximate
Fri 05:46:56 PM 40.4592 -77.1297 306° West 224 258 8,300  Level New York Center
Fri 05:47:00 PM 40.4434 -77.1934 323° Northwest  Level FlightAware Approximate
Fri 05:47:56 PM 40.4914 -77.1900 305° West 224 258 9,500  Level New York Center
Fri 05:48:00 PM 40.4744 -77.2321 303° West  Level FlightAware Approximate
Fri 05:48:56 PM 40.5272 -77.2589 304° West 224 258 11,100  Level New York Center
Fri 05:49:00 PM 40.4981 -77.2795 303° West  Level FlightAware Approximate
Fri 05:49:56 PM 40.5431 -77.3094 292° West 195 224 12,600  Level New York Center
Fri 05:50:56 PM 40.5581 -77.3767 286° West 170 196 13,600 850 Climbing New York Center
Fri 05:51:56 PM 40.5739 -77.4328 290° West 170 196 14,300 900 Climbing New York Center
Fri 05:52:56 PM 40.5906 -77.5056 287° West 181 208 15,400 1,076 Climbing New York Center
Fri 05:55:00 PM 40.6242 -77.6347 289° West 182 209 17,600 871 Climbing Cleveland Center
Fri 05:56:02 PM 40.6383 -77.6950 287° West 177 204 18,100 581 Climbing Cleveland Center
Fri 05:57:04 PM 40.6542 -77.7572 289° West 178 205 18,800 871 Climbing Cleveland Center
Fri 05:58:06 PM 40.6694 -77.8183 288° West 178 205 19,900 581 Climbing Cleveland Center
Fri 05:59:08 PM 40.6844 -77.8783 288° West 174 200 20,000 48 Climbing Cleveland Center
Fri 06:00:10 PM 40.7039 -77.9586 288° West 188 216 20,000  Level Cleveland Center
Fri 06:01:12 PM 40.7208 -78.0283 288° West 197 227 20,000  Level Cleveland Center
Fri 06:02:14 PM 40.7372 -78.0967 288° West 197 227 20,000  Level Cleveland Center
Fri 06:03:17 PM 40.7547 -78.1664 288° West 198 228 20,000  Level Cleveland Center
Fri 06:04:19 PM 40.7714 -78.2358 288° West 199 229 20,000  Level Cleveland Center
Fri 06:05:21 PM 40.7878 -78.3044 288° West 199 229 20,000  Level Cleveland Center
Fri 06:06:23 PM 40.8075 -78.3875 287° West 199 229 20,000  Level Cleveland Center
Fri 06:07:25 PM 40.8244 -78.4564 288° West 199 229 20,000  Level Cleveland Center
Fri 06:08:28 PM 40.8408 -78.5247 288° West 198 228 20,000  Level Cleveland Center
Fri 06:09:29 PM 40.8581 -78.5986 287° West 198 228 20,000  Level Cleveland Center
Fri 06:10:31 PM 40.8761 -78.6669 289° West 198 228 20,000  Level Cleveland Center
Fri 06:11:33 PM 40.8944 -78.7364 289° West 198 228 20,000  Level Cleveland Center
Fri 06:12:35 PM 40.9133 -78.8061 290° West 199 229 20,000  Level Cleveland Center
Fri 06:13:38 PM 40.9325 -78.8753 290° West 200 230 20,000  Level Cleveland Center
Fri 06:14:40 PM 40.9547 -78.9594 289° West 201 231 20,000  Level Cleveland Center
Fri 06:15:42 PM 40.9733 -79.0272 290° West 200 230 20,000  Level Cleveland Center
Fri 06:16:44 PM 40.9911 -79.0961 289° West 199 229 20,000  Level Cleveland Center
Fri 06:17:46 PM 41.0097 -79.1647 290° West 199 229 20,000  Level Cleveland Center
Fri 06:18:48 PM 41.0275 -79.2331 289° West 199 229 20,000  Level Cleveland Center
Fri 06:19:50 PM 41.0497 -79.3147 290° West 196 226 20,000  Level Cleveland Center
Fri 06:20:52 PM 41.0631 -79.3694 288° West 197 227 20,000  Level Cleveland Center
Fri 06:21:54 PM 41.0847 -79.4508 289° West 196 226 20,000  Level Cleveland Center
Fri 06:22:57 PM 41.1022 -79.5181 289° West 196 226 20,000  Level Cleveland Center
Fri 06:23:59 PM 41.1208 -79.5861 290° West 196 226 20,000 -532 Level Cleveland Center
Fri 06:25:01 PM 41.1403 -79.6692 287° West 203 234 18,900 -919 Descending Cleveland Center
Fri 06:26:03 PM 41.1611 -79.7447 290° West 217 250 18,100 -677 Descending Cleveland Center
Fri 06:27:05 PM 41.1794 -79.8183 288° West 215 247 17,500 -629 Descending Cleveland Center
Fri 06:28:07 PM 41.1992 -79.8925 289° West 214 246 16,800 -720 Descending Cleveland Center
Fri 06:29:10 PM 41.2219 -79.9800 289° West 212 244 16,000 -672 Descending Cleveland Center
Fri 06:30:12 PM 41.2378 -80.0417 289° West 210 242 15,400 -732 Descending Cleveland Center
Fri 06:31:13 PM 41.2603 -80.1317 288° West 211 243 14,500 -780 Descending Cleveland Center
Fri 06:32:15 PM 41.2789 -80.2089 288° West 218 251 13,800 -677 Descending Cleveland Center
Fri 06:33:17 PM 41.2997 -80.2864 290° West 221 254 13,100 -720 Descending Cleveland Center
Fri 06:34:20 PM 41.3236 -80.3792 289° West 241 277 12,300 -528 Descending Cleveland Center
Fri 06:35:22 PM 41.3439 -80.4644 288° West 241 277 12,000 -145 Descending Cleveland Center
Fri 06:36:24 PM 41.3647 -80.5461 289° West 235 270 12,000 -48 Level Cleveland Center
Fri 06:37:26 PM 41.3844 -80.6272 288° West 230 265 11,900 -290 Descending Cleveland Center
Fri 06:38:28 PM 41.4050 -80.7108 288° West 234 269 11,400 -532 Descending Cleveland Center
Fri 06:39:30 PM 41.4311 -80.8156 288° West 250 288 10,800 -532 Descending Cleveland Center
Fri 06:40:32 PM 41.4528 -80.9006 289° West 246 283 10,300 -480 Descending Cleveland Center
Fri 06:41:10 PM 41.4661 -80.9556 288° West 245 282 10,000 -581 Descending Cleveland Center
Fri 06:41:34 PM 41.4756 -80.9933 288° West 243 280 9,700 -565 Descending Cleveland Center
Fri 06:42:35 PM 41.4933 -81.0797 285° West 244 281 9,200 -387 Descending Cleveland Center
Fri 06:42:36 PM 41.4919 -81.0744 109° East 242 278 9,300 -300 Climbing Cleveland Center
Fri 06:43:35 PM 41.4942 -81.1692 272° West 233 268 8,900 -387 Descending Cleveland Center
Fri 06:43:38 PM 41.4939 -81.1647 95° East 242 278 8,900 -984 Level Cleveland Center
Fri 06:44:36 PM 41.4994 -81.2536 275° West 232 267 7,900 -952 Descending Cleveland Center
Fri 06:44:41 PM 41.4994 -81.2508 90° East 238 274 7,900 -982 Level Cleveland Center
Fri 06:45:31 PM 41.5031 -81.3322 273° West 235 270 7,000 -968 Descending Cleveland Center
Fri 06:45:43 PM 41.5031 -81.3375 270° West 235 270 6,900 -1,000 Descending Cleveland Center
Fri 06:46:31 PM 41.5078 -81.4197 274° West 233 268 6,000 -1,161 Descending Cleveland Center
Fri 06:46:45 PM 41.5092 -81.4389 276° West 234 269 5,700 -789 Descending Cleveland Center
Fri 06:47:47 PM 41.5136 -81.5231 274° West 233 268 5,000 -690 Descending Cleveland Center
Fri 06:48:38 PM 41.5161 -81.5856 273° West 192 221 4,400 -677 Descending Cleveland Center
Fri 06:48:49 PM 41.5172 -81.5972 277° West 213 245 4,300 -324 Descending Cleveland Center
Fri 06:49:52 PM 41.5175 -81.6614 270° West 185 213 4,000 -436 Descending Cleveland Center
Fri 06:50:39 PM 41.5000 -81.7172 247° West 178 205 3,500 -590 Descending Cleveland Center
Fri 06:50:53 PM 41.4961 -81.7194 203° Southwest 180 207 3,400 -1,013 Descending Cleveland Center
Fri 06:51:56 PM 41.4600 -81.7767 230° Southwest 177 204 2,200 -947 Descending Cleveland Center
Fri 06:52:47 PM 41.4386 -81.8133 232° Southwest 149 171 1,600 -677 Descending Cleveland Center
Fri 06:52:58 PM 41.4350 -81.8172 219° Southwest 153 176 1,500 -689 Descending Cleveland Center
Fri 06:53:48 PM 41.4192 -81.8436 231° Southwest 94 108 900 -581 Descending Cleveland Center
Fri 06:54:00 PM 41.4158 -81.8464 212° Southwest 120 138 900  Level Cleveland Center
Fri 06:55:00 PM 41.4000 -81.8500 252° West  Level FlightAware Approximate
Fri 07:02:00 PM 41.4094 -81.8547 252° West  Level Estimated

Login

Don't have an account? Register now (free) for customized features, flight alerts, and more!